Time;durP1;ratioP1;P1;durP2;ratioP2;P2;SDS_P1;SDS_P2;PMS_P1;PMS_P2;Temp;Humidity;BMP_temperature;BMP_pressure;BME280_temperature;BME280_humidity;BME280_pressure;Samples;Min_cycle;Max_cycle;Signal;HPM_P1;HPM_P2
2022/04/25 00:00:49;;;;;;;5.85;4.55;;;;;;;17.76;31.35;100358.03;4999075;28;20557;-73
2022/04/25 00:03:15;;;;;;;6.70;4.60;;;;;;;17.78;31.85;100379.84;4974532;28;20125;-74
2022/04/25 00:05:42;;;;;;;6.68;4.18;;;;;;;17.79;31.50;100384.28;4974254;28;20108;-73
2022/04/25 00:08:09;;;;;;;4.72;3.50;;;;;;;17.80;31.73;100394.25;5002811;28;20050;-73
2022/04/25 00:10:36;;;;;;;5.50;2.80;;;;;;;17.79;31.65;100396.13;4975669;28;20077;-73
2022/04/25 00:13:02;;;;;;;4.47;2.80;;;;;;;17.79;31.71;100411.75;4996885;28;20566;-73
2022/04/25 00:15:29;;;;;;;3.55;2.10;;;;;;;17.78;31.72;100410.91;4994885;28;20149;-73
2022/04/25 00:17:56;;;;;;;3.47;2.20;;;;;;;17.78;32.31;100424.63;4976771;28;20058;-73
2022/04/25 00:20:22;;;;;;;3.10;2.33;;;;;;;17.76;32.19;100425.81;4991240;28;20085;-74
2022/04/25 00:22:49;;;;;;;3.35;2.30;;;;;;;17.76;32.65;100428.56;4993435;28;20097;-73
2022/04/25 00:25:16;;;;;;;4.15;2.22;;;;;;;17.73;32.52;100432.47;4966440;28;20145;-73
2022/04/25 00:27:42;;;;;;;3.50;1.80;;;;;;;17.72;32.96;100441.72;4979472;28;20053;-73
2022/04/25 00:30:09;;;;;;;3.03;1.40;;;;;;;17.70;33.20;100438.31;4996014;28;20133;-74
2022/04/25 00:32:36;;;;;;;2.33;1.42;;;;;;;17.67;33.08;100435.00;4966309;28;20074;-74
2022/04/25 00:35:04;;;;;;;2.38;1.50;;;;;;;17.65;33.09;100435.16;5000210;28;20095;-75
2022/04/25 00:37:30;;;;;;;1.75;1.38;;;;;;;17.62;33.57;100432.75;4993549;28;20078;-76
2022/04/25 00:39:57;;;;;;;3.42;1.65;;;;;;;17.59;33.47;100427.53;4982667;28;20574;-78
2022/04/25 00:42:25;;;;;;;3.85;1.52;;;;;;;17.57;33.77;100429.56;4991931;28;20101;-80
2022/04/25 00:44:51;;;;;;;3.47;1.85;;;;;;;17.54;34.31;100416.16;4999969;28;20072;-82
2022/04/25 00:47:19;;;;;;;3.72;1.80;;;;;;;17.50;34.50;100412.84;4978323;28;20038;-87
2022/04/25 00:49:46;;;;;;;3.28;1.70;;;;;;;17.46;34.71;100399.59;4978512;28;20046;-91
2022/04/25 00:52:13;;;;;;;3.28;1.80;;;;;;;17.43;34.23;100392.56;4986492;28;20481;-89
2022/04/25 00:54:41;;;;;;;2.97;1.80;;;;;;;17.36;34.41;100385.97;4960212;28;20110;-87
2022/04/25 00:57:09;;;;;;;3.80;2.25;;;;;;;17.29;34.55;100365.69;4968850;28;20405;-83
2022/04/25 00:59:36;;;;;;;3.90;2.28;;;;;;;17.16;35.17;100356.97;4997035;28;20487;-82
2022/04/25 01:02:04;;;;;;;4.28;2.30;;;;;;;17.07;34.99;100346.94;4976383;28;20109;-80
2022/04/25 01:04:32;;;;;;;3.88;2.30;;;;;;;16.90;35.43;100345.91;4991061;28;20485;-79
2022/04/25 01:06:59;;;;;;;6.13;2.45;;;;;;;16.80;35.01;100319.59;4975630;28;20105;-79
2022/04/25 01:09:25;;;;;;;3.90;2.47;;;;;;;16.59;35.95;100308.88;4995704;28;20062;-78
2022/04/25 01:11:52;;;;;;;3.45;2.28;;;;;;;16.52;35.57;100302.28;4995626;28;20077;-78
2022/04/25 01:14:23;;;;;;;3.00;2.03;;;;;;;16.44;35.02;100280.28;4996370;28;20053;-77
2022/04/25 01:16:51;;;;;;;3.05;2.00;;;;;;;16.35;35.28;100265.63;4997422;28;20073;-78
2022/04/25 01:19:17;;;;;;;4.75;2.50;;;;;;;16.34;35.25;100264.75;4971427;28;20105;-77
2022/04/25 01:21:50;;;;;;;3.17;2.20;;;;;;;16.28;35.25;100272.72;4999083;28;20128;-77
2022/04/25 01:27:16;;;;;;;2.95;1.55;;;;;;;16.13;36.19;100313.47;5000438;28;20104;-77
2022/04/25 01:29:48;;;;;;;2.28;1.40;;;;;;;16.10;36.80;100324.72;4994190;28;20069;-77
2022/04/25 01:32:16;;;;;;;2.80;1.70;;;;;;;16.06;36.24;100312.31;4995625;28;20575;-77
2022/04/25 01:34:43;;;;;;;3.38;1.70;;;;;;;16.06;36.59;100323.28;4992122;28;20069;-77
2022/04/25 01:37:28;;;;;;;3.00;1.88;;;;;;;16.08;37.90;100325.88;4991264;28;20145;-77
2022/04/25 01:39:55;;;;;;;3.53;2.20;;;;;;;16.09;36.57;100327.59;4994480;28;20089;-77
2022/04/25 01:42:22;;;;;;;4.68;2.47;;;;;;;16.10;37.03;100330.19;4999401;28;20125;-77
2022/04/25 01:44:50;;;;;;;4.05;2.30;;;;;;;16.13;36.95;100329.03;4972098;28;20129;-77
2022/04/25 01:47:18;;;;;;;3.38;2.35;;;;;;;16.15;37.20;100332.47;4978119;28;20042;-77
2022/04/25 01:49:45;;;;;;;4.15;2.53;;;;;;;16.17;37.42;100342.25;5000634;28;20471;-77
2022/04/25 01:52:19;;;;;;;4.13;2.50;;;;;;;16.23;38.92;100346.25;4994545;28;20086;-77
2022/04/25 01:54:47;;;;;;;4.95;2.88;;;;;;;16.21;37.43;100351.06;4993334;28;20101;-77
2022/04/25 01:57:14;;;;;;;5.38;3.60;;;;;;;16.24;37.61;100353.47;4984691;28;20121;-77
2022/04/25 01:59:41;;;;;;;6.05;4.07;;;;;;;16.26;37.71;100348.72;4996207;28;20516;-77
2022/04/25 02:02:07;;;;;;;5.53;3.58;;;;;;;16.29;37.54;100345.69;4992102;28;20081;-77
2022/04/25 02:04:34;;;;;;;4.65;3.10;;;;;;;16.30;37.46;100336.44;4992737;28;20050;-77
2022/04/25 02:07:01;;;;;;;5.25;3.35;;;;;;;16.31;37.67;100338.16;5004703;28;20081;-77
2022/04/25 02:09:33;;;;;;;3.57;2.60;;;;;;;16.29;37.79;100335.59;4989117;28;20057;-77
2022/04/25 02:12:00;;;;;;;4.35;2.65;;;;;;;16.32;37.56;100335.25;4969502;28;20153;-77
2022/04/25 02:14:29;;;;;;;4.35;2.88;;;;;;;16.32;37.49;100332.53;4990873;28;20486;-77
2022/04/25 02:17:00;;;;;;;3.75;2.70;;;;;;;16.33;37.33;100326.03;4994381;28;20046;-77
2022/04/25 02:19:28;;;;;;;4.15;2.28;;;;;;;16.31;37.16;100330.78;4995990;28;20050;-77
2022/04/25 02:21:56;;;;;;;3.30;2.28;;;;;;;16.30;37.01;100329.09;4986949;28;20494;-77
2022/04/25 02:24:23;;;;;;;3.90;2.40;;;;;;;16.28;37.10;100317.41;4986428;28;20054;-77
2022/04/25 02:26:50;;;;;;;3.38;2.30;;;;;;;16.26;37.51;100324.06;4965896;28;20055;-77
2022/04/25 02:29:20;;;;;;;4.32;2.70;;;;;;;16.26;37.38;100322.19;4973696;28;20078;-77
2022/04/25 02:31:46;;;;;;;3.17;2.20;;;;;;;16.25;37.55;100322.31;4998217;28;20272;-77
2022/04/25 02:34:13;;;;;;;3.97;2.80;;;;;;;16.26;37.36;100330.41;4986389;28;20050;-77
2022/04/25 02:36:40;;;;;;;4.38;2.42;;;;;;;16.26;37.28;100329.53;4987107;28;20136;-77
2022/04/25 02:39:07;;;;;;;3.42;2.22;;;;;;;16.26;37.65;100332.28;4990132;28;20096;-77
2022/04/25 02:41:33;;;;;;;4.43;2.63;;;;;;;16.26;37.54;100341.34;4999155;28;20070;-77
2022/04/25 02:44:00;;;;;;;3.50;2.10;;;;;;;16.27;37.61;100347.69;4990696;28;20664;-77
2022/04/25 02:46:26;;;;;;;3.70;2.47;;;;;;;16.26;37.58;100352.31;4999524;28;20104;-77
2022/04/25 02:48:53;;;;;;;3.65;2.38;;;;;;;16.28;37.82;100354.91;4975833;28;20052;-77
2022/04/25 02:51:20;;;;;;;4.03;2.40;;;;;;;16.27;38.24;100354.03;4987291;28;20518;-77
2022/04/25 02:53:46;;;;;;;3.65;2.45;;;;;;;16.29;38.05;100357.50;4989587;28;20054;-77
2022/04/25 02:56:13;;;;;;;3.80;2.45;;;;;;;16.29;38.10;100352.03;4992775;28;20046;-77
2022/04/25 02:58:40;;;;;;;4.03;2.60;;;;;;;16.29;38.06;100348.41;4993819;28;20069;-77
2022/04/25 03:01:08;;;;;;;3.63;2.40;;;;;;;16.30;38.41;100353.75;4998248;28;20135;-77
2022/04/25 03:03:36;;;;;;;4.00;2.75;;;;;;;16.31;38.24;100346.38;4988509;28;20190;-77
2022/04/25 03:06:09;;;;;;;3.80;2.85;;;;;;;16.30;38.09;100350.16;4991113;28;20090;-77
2022/04/25 03:08:38;;;;;;;4.13;2.83;;;;;;;16.27;38.34;100347.69;5003093;28;20451;-76
2022/04/25 03:11:06;;;;;;;4.30;2.50;;;;;;;16.28;38.13;100354.91;5002843;28;20077;-76
2022/04/25 03:13:35;;;;;;;3.67;2.70;;;;;;;16.25;38.37;100347.84;4989527;28;20082;-76
2022/04/25 03:16:04;;;;;;;5.15;3.05;;;;;;;16.26;38.45;100354.19;4995149;28;20054;-76
2022/04/25 03:18:31;;;;;;;4.72;2.83;;;;;;;16.24;38.29;100353.47;4962739;28;20548;-76
2022/04/25 03:20:59;;;;;;;4.20;2.90;;;;;;;16.22;38.25;100353.66;4997188;28;20050;-76
2022/04/25 03:23:26;;;;;;;4.43;3.00;;;;;;;16.21;38.52;100356.53;4974105;28;20050;-76
2022/04/25 03:25:53;;;;;;;4.05;2.70;;;;;;;16.20;38.30;100360.28;4995955;28;20074;-76
2022/04/25 03:28:20;;;;;;;3.85;2.60;;;;;;;16.18;38.37;100359.56;4993653;28;20212;-76
2022/04/25 03:30:47;;;;;;;4.50;2.80;;;;;;;16.16;38.43;100361.56;4998021;28;20515;-76
2022/04/25 03:33:15;;;;;;;4.13;2.58;;;;;;;16.15;38.26;100362.59;4999182;28;20401;-76
2022/04/25 03:35:45;;;;;;;4.57;2.90;;;;;;;16.13;38.47;100370.97;4999164;28;20121;-76
2022/04/25 03:38:13;;;;;;;4.95;3.00;;;;;;;16.12;38.63;100377.47;4996458;28;20045;-76
2022/04/25 03:40:40;;;;;;;4.47;3.10;;;;;;;16.10;38.30;100376.75;4999563;28;20548;-76
2022/04/25 03:43:09;;;;;;;4.57;3.00;;;;;;;16.09;38.49;100385.97;4991483;28;20046;-76
2022/04/25 03:45:36;;;;;;;4.00;2.90;;;;;;;16.07;38.49;100379.75;4990380;28;20058;-76
2022/04/25 03:48:04;;;;;;;4.00;2.75;;;;;;;16.05;38.37;100381.81;5006740;28;20355;-76
2022/04/25 03:50:34;;;;;;;4.05;2.60;;;;;;;16.03;38.45;100381.09;4993003;28;20054;-76
2022/04/25 03:53:06;;;;;;;4.15;2.72;;;;;;;16.04;39.01;100392.91;5000230;28;20082;-76
2022/04/25 03:58:18;;;;;;;3.80;2.47;;;;;;;15.96;38.41;100390.91;4981753;28;20144;-76
2022/04/25 04:00:44;;;;;;;4.30;2.78;;;;;;;15.95;38.51;100391.94;4989218;28;20133;-76
2022/04/25 04:03:14;;;;;;;4.05;2.72;;;;;;;15.92;38.50;100387.59;4995017;28;20140;-76
2022/04/25 04:05:42;;;;;;;4.70;3.30;;;;;;;15.91;38.13;100391.34;4988228;28;20073;-76
2022/04/25 04:08:09;;;;;;;4.18;2.88;;;;;;;15.89;38.54;100390.66;4988561;28;20139;-76
2022/04/25 04:10:36;;;;;;;4.05;3.00;;;;;;;15.87;38.61;100397.28;4997741;28;20049;-76
2022/04/25 04:13:05;;;;;;;3.38;2.47;;;;;;;15.85;38.81;100397.41;4992363;28;20155;-76
2022/04/25 04:15:32;;;;;;;4.53;3.17;;;;;;;15.84;38.55;100398.44;4994671;28;20395;-76
2022/04/25 04:17:59;;;;;;;4.88;3.40;;;;;;;15.82;39.04;100400.44;5000768;28;20090;-76
2022/04/25 04:20:25;;;;;;;4.53;3.10;;;;;;;15.80;38.85;100407.97;4989494;28;20143;-76
2022/04/25 04:22:52;;;;;;;4.50;3.35;;;;;;;15.79;38.87;100410.84;4988295;28;20169;-76
2022/04/25 04:25:20;;;;;;;4.80;3.25;;;;;;;15.76;38.93;100412.00;4985307;28;20054;-76
2022/04/25 04:27:48;;;;;;;5.03;3.55;;;;;;;15.75;38.90;100415.72;4988555;28;20050;-76
2022/04/25 04:30:16;;;;;;;4.32;3.15;;;;;;;15.74;39.22;100422.22;4989363;28;20171;-76
2022/04/25 04:32:42;;;;;;;4.50;3.17;;;;;;;15.72;39.52;100418.78;4989335;28;20050;-76
2022/04/25 04:35:11;;;;;;;4.60;3.10;;;;;;;15.73;39.42;100419.66;4987669;28;20053;-76
2022/04/25 04:37:39;;;;;;;4.75;3.35;;;;;;;15.70;38.71;100417.19;4988357;28;20302;-75
2022/04/25 04:42:54;;;;;;;5.38;3.20;;;;;;;15.65;39.29;100423.09;4993654;28;20138;-76
2022/04/25 04:45:21;;;;;;;4.78;3.33;;;;;;;15.65;39.53;100427.72;4993839;28;20141;-75
2022/04/25 04:47:49;;;;;;;5.38;3.50;;;;;;;15.64;39.55;100423.25;4997302;28;20130;-75
2022/04/25 04:50:16;;;;;;;4.80;3.45;;;;;;;15.62;39.46;100423.38;4990549;28;20493;-76
2022/04/25 04:52:47;;;;;;;4.82;3.55;;;;;;;15.65;40.52;100431.28;4991445;28;20046;-75
2022/04/25 04:55:14;;;;;;;5.18;3.65;;;;;;;15.60;39.70;100428.13;4987642;28;20138;-75
2022/04/25 04:57:42;;;;;;;6.13;3.65;;;;;;;15.59;39.58;100427.28;4998886;28;20100;-75
2022/04/25 05:00:10;;;;;;;5.25;3.35;;;;;;;15.58;39.89;100428.28;4997730;28;20070;-76
2022/04/25 05:02:38;;;;;;;6.15;3.38;;;;;;;15.58;39.79;100427.41;4986515;28;20562;-76
2022/04/25 05:05:05;;;;;;;6.50;4.28;;;;;;;15.59;40.16;100437.34;4987737;28;20070;-76
2022/04/25 05:07:32;;;;;;;6.18;3.88;;;;;;;15.59;39.92;100437.34;4998421;28;20471;-76
2022/04/25 05:09:59;;;;;;;5.13;4.20;;;;;;;15.59;40.00;100434.63;4967860;28;20074;-75
2022/04/25 05:12:27;;;;;;;6.13;4.10;;;;;;;15.58;40.03;100433.75;4985697;28;20143;-76
2022/04/25 05:14:56;;;;;;;6.25;4.10;;;;;;;15.58;40.01;100431.00;4978107;28;20050;-76
2022/04/25 05:17:23;;;;;;;5.82;4.32;;;;;;;15.58;40.28;100430.16;4990169;28;20484;-77
2022/04/25 05:19:49;;;;;;;7.10;4.18;;;;;;;15.58;40.29;100438.34;4988876;28;20202;-76
2022/04/25 05:22:16;;;;;;;6.40;3.97;;;;;;;15.59;40.38;100440.09;4982435;28;20046;-76
2022/04/25 05:24:43;;;;;;;5.72;4.22;;;;;;;15.59;40.31;100449.16;4994966;28;20116;-76
2022/04/25 05:27:11;;;;;;;6.28;4.50;;;;;;;15.57;40.67;100444.84;4969914;28;20133;-76
2022/04/25 05:29:37;;;;;;;6.50;5.13;;;;;;;15.59;40.56;100456.50;4993600;28;20086;-75
2022/04/25 05:32:04;;;;;;;5.82;4.28;;;;;;;15.59;40.49;100448.31;4993259;28;20129;-76
2022/04/25 05:34:37;;;;;;;5.40;4.00;;;;;;;15.56;40.71;100454.09;4971342;28;20414;-76
2022/04/25 05:37:04;;;;;;;5.57;4.65;;;;;;;15.57;40.67;100445.69;4969367;28;20062;-77
2022/04/25 05:39:32;;;;;;;7.38;4.32;;;;;;;15.56;40.81;100452.22;4983454;28;20112;-77
2022/04/25 05:42:03;;;;;;;6.13;4.45;;;;;;;15.57;40.70;100462.13;4967622;28;20042;-76
2022/04/25 05:44:30;;;;;;;7.57;4.70;;;;;;;15.58;40.62;100462.97;4976339;28;20058;-77
2022/04/25 05:46:56;;;;;;;6.57;4.65;;;;;;;15.57;40.93;100467.59;4970261;28;20124;-76
2022/04/25 05:52:10;;;;;;;5.47;4.45;;;;;;;15.55;40.77;100472.38;4991484;28;20340;-77
2022/04/25 05:54:46;;;;;;;7.20;4.88;;;;;;;15.57;41.23;100473.06;4995679;28;20093;-77
2022/04/25 05:57:13;;;;;;;6.88;4.82;;;;;;;15.57;40.92;100475.81;4989712;28;20046;-77
2022/04/25 05:59:39;;;;;;;6.88;4.72;;;;;;;15.59;41.22;100472.94;4970555;28;20573;-77
2022/04/25 06:02:07;;;;;;;5.70;4.45;;;;;;;15.61;41.09;100479.13;4986924;28;20321;-77
2022/04/25 06:04:34;;;;;;;6.15;4.88;;;;;;;15.63;41.27;100484.47;4988893;28;20105;-77
2022/04/25 06:07:04;;;;;;;7.47;4.55;;;;;;;15.65;41.40;100486.03;4989705;28;20046;-77
2022/04/25 06:09:30;;;;;;;6.63;4.93;;;;;;;15.67;41.32;100480.41;4985632;28;20510;-77
2022/04/25 06:11:58;;;;;;;6.95;5.20;;;;;;;15.68;41.54;100488.47;4972427;28;20050;-76
2022/04/25 06:14:25;;;;;;;7.97;5.55;;;;;;;15.72;41.41;100489.94;4995498;28;20121;-76
2022/04/25 06:16:51;;;;;;;9.32;5.68;;;;;;;15.75;41.31;100489.63;4969983;28;20137;-74
2022/04/25 06:19:18;;;;;;;7.88;5.43;;;;;;;15.78;41.42;100497.56;4989998;28;20061;-73
2022/04/25 06:21:45;;;;;;;7.32;5.60;;;;;;;15.83;41.92;100500.72;4988481;28;20070;-74
2022/04/25 06:24:11;;;;;;;6.95;5.32;;;;;;;15.86;41.93;100499.59;4991603;28;20060;-73
2022/04/25 06:26:38;;;;;;;7.18;5.75;;;;;;;15.92;41.99;100507.19;4994552;28;20046;-73
2022/04/25 06:29:05;;;;;;;6.18;4.75;;;;;;;15.95;41.60;100504.19;4986836;28;20058;-75
2022/04/25 06:31:32;;;;;;;7.03;5.50;;;;;;;15.98;41.71;100504.75;4988714;28;20089;-75
2022/04/25 06:33:58;;;;;;;7.07;5.30;;;;;;;16.02;41.88;100508.06;4987027;28;20129;-73
2022/04/25 06:36:25;;;;;;;7.25;5.45;;;;;;;16.07;41.45;100507.63;4997015;28;20093;-73
2022/04/25 06:38:53;;;;;;;8.77;5.82;;;;;;;16.07;41.70;100508.47;5006956;28;20054;-73
2022/04/25 06:41:21;;;;;;;8.02;5.95;;;;;;;16.11;41.37;100514.53;4981523;28;20080;-73
2022/04/25 06:43:48;;;;;;;7.35;5.30;;;;;;;16.14;41.42;100517.00;4983409;28;20065;-74
2022/04/25 06:46:15;;;;;;;9.48;6.75;;;;;;;16.15;41.35;100522.31;5009480;28;20050;-74
2022/04/25 06:49:19;;;;;;;9.10;6.63;;;;;;;16.16;41.14;100518.56;5008150;28;20062;-74
2022/04/25 06:51:30;;;;;;;8.63;6.20;;;;;;;16.16;41.17;100528.66;5005165;28;20653;-74
2022/04/25 06:53:57;;;;;;;8.43;6.25;;;;;;;16.17;41.17;100524.91;4993300;28;20073;-74
2022/04/25 06:56:23;;;;;;;9.13;6.68;;;;;;;16.18;41.45;100519.28;4988571;28;20069;-73
2022/04/25 06:58:50;;;;;;;8.90;7.32;;;;;;;16.19;41.52;100522.88;4991575;28;20050;-74
2022/04/25 07:01:16;;;;;;;8.07;6.28;;;;;;;16.22;41.65;100525.34;4989230;28;20097;-75
2022/04/25 07:03:43;;;;;;;8.18;6.28;;;;;;;16.23;41.76;100519.69;4975234;28;20096;-75
2022/04/25 07:06:10;;;;;;;8.15;6.32;;;;;;;16.26;41.80;100532.25;4988263;28;20050;-75
2022/04/25 07:08:37;;;;;;;9.25;6.63;;;;;;;16.30;41.59;100529.09;4992712;28;20078;-75
2022/04/25 07:11:03;;;;;;;8.73;7.30;;;;;;;16.33;41.62;100531.50;5008770;28;20057;-74
2022/04/25 07:13:30;;;;;;;9.85;6.88;;;;;;;16.38;41.73;100543.91;4995204;28;20077;-74
2022/04/25 07:16:01;;;;;;;9.18;6.88;;;;;;;16.41;41.61;100536.25;4996119;28;20051;-74
2022/04/25 07:18:29;;;;;;;8.63;6.45;;;;;;;16.46;41.92;100533.94;4988824;28;20470;-75
2022/04/25 07:20:56;;;;;;;8.30;6.63;;;;;;;16.50;42.08;100532.63;4990075;28;20096;-74
2022/04/25 07:28:53;;;;;;;8.75;6.78;;;;;;;16.59;41.50;100534.47;4992343;28;20054;-74
2022/04/25 07:31:20;;;;;;;8.55;6.82;;;;;;;16.65;41.32;100535.78;4975123;28;20054;-74
2022/04/25 07:33:47;;;;;;;7.95;6.00;;;;;;;16.67;41.35;100539.25;4999342;28;20078;-74
2022/04/25 07:36:18;;;;;;;8.05;6.32;;;;;;;16.68;41.29;100539.09;4975850;28;20108;-74
2022/04/25 07:38:46;;;;;;;8.43;6.72;;;;;;;16.70;41.29;100547.19;4992180;28;20449;-74
2022/04/25 07:41:13;;;;;;;9.23;7.45;;;;;;;16.72;41.17;100543.25;5001550;28;20058;-74
2022/04/25 07:43:40;;;;;;;9.77;6.90;;;;;;;16.77;41.37;100550.19;4992536;28;20129;-74
2022/04/25 07:46:07;;;;;;;10.82;6.75;;;;;;;16.79;41.28;100549.03;5001174;28;20137;-74
2022/04/25 07:48:34;;;;;;;9.20;6.70;;;;;;;16.82;41.27;100551.44;5005003;28;20058;-74
2022/04/25 07:51:02;;;;;;;9.20;6.60;;;;;;;16.85;41.29;100553.03;5000406;28;20081;-74
2022/04/25 07:53:30;;;;;;;8.93;7.03;;;;;;;16.88;41.27;100559.09;4995518;28;20042;-74
2022/04/25 07:55:57;;;;;;;11.73;7.43;;;;;;;16.90;40.80;100561.66;4982906;28;20120;-74
2022/04/25 07:58:24;;;;;;;10.73;7.72;;;;;;;16.91;41.27;100561.53;4994048;28;20501;-75
2022/04/25 08:00:50;;;;;;;10.15;7.28;;;;;;;16.93;40.73;100566.88;4995075;28;20057;-74
2022/04/25 08:03:24;;;;;;;11.48;8.13;;;;;;;16.91;40.53;100569.75;5007003;28;20097;-75
2022/04/25 08:05:51;;;;;;;10.52;7.43;;;;;;;16.93;40.33;100565.00;4989715;28;20533;-74
2022/04/25 08:08:18;;;;;;;9.68;7.88;;;;;;;16.95;40.72;100578.56;5002838;28;20054;-75
2022/04/25 08:10:44;;;;;;;9.80;7.40;;;;;;;16.94;40.78;100574.06;5005858;28;20042;-74
2022/04/25 08:18:42;;;;;;;9.90;7.18;;;;;;;16.94;40.20;100582.31;4996418;28;20050;-74
2022/04/25 08:21:10;;;;;;;9.88;7.05;;;;;;;16.96;40.26;100586.63;5004103;28;20049;-75
2022/04/25 08:23:36;;;;;;;10.60;7.55;;;;;;;16.96;40.50;100589.38;5008668;28;20088;-75
2022/04/25 08:26:03;;;;;;;10.27;7.57;;;;;;;16.98;40.77;100586.47;5003746;28;20369;-75
2022/04/25 08:28:30;;;;;;;9.32;6.90;;;;;;;16.99;40.57;100590.94;5010328;28;20394;-75
2022/04/25 08:31:17;;;;;;;9.77;6.95;;;;;;;17.01;40.72;100597.16;5001049;28;20050;-75
2022/04/25 08:33:47;;;;;;;9.45;7.00;;;;;;;17.03;40.68;100598.72;5008305;28;20061;-74
2022/04/25 08:36:14;;;;;;;11.00;7.10;;;;;;;17.04;40.79;100594.97;5010826;28;20073;-75
2022/04/25 08:38:43;;;;;;;9.52;6.72;;;;;;;17.07;40.79;100605.63;4993527;28;20497;-74
2022/04/25 08:41:12;;;;;;;12.40;7.75;;;;;;;17.11;40.72;100597.97;4990811;28;20050;-75
2022/04/25 08:43:40;;;;;;;12.43;8.57;;;;;;;17.12;40.69;100605.19;5005549;28;20557;-76
2022/04/25 08:46:08;;;;;;;11.80;9.00;;;;;;;17.12;40.50;100605.19;5007861;28;20544;-75
2022/04/25 08:48:39;;;;;;;12.07;9.02;;;;;;;17.16;40.56;100608.47;5008817;28;20058;-74
2022/04/25 08:51:07;;;;;;;10.85;7.90;;;;;;;17.16;40.70;100611.22;5010525;28;20102;-75
2022/04/25 08:53:34;;;;;;;10.60;8.18;;;;;;;17.18;40.79;100612.81;5009919;28;20147;-75
2022/04/25 08:56:03;;;;;;;10.98;8.45;;;;;;;17.23;40.92;100615.97;5010705;28;20046;-75
2022/04/25 08:58:35;;;;;;;10.63;8.43;;;;;;;17.28;40.79;100621.00;5009424;28;20053;-74
2022/04/25 09:01:02;;;;;;;9.93;7.30;;;;;;;17.26;40.71;100621.16;5008558;28;20528;-74
2022/04/25 09:03:29;;;;;;;11.27;7.55;;;;;;;17.32;40.75;100627.91;5004631;28;20085;-74
2022/04/25 09:05:55;;;;;;;11.15;7.63;;;;;;;17.36;40.77;100624.72;4974386;28;20078;-74
2022/04/25 09:08:24;;;;;;;10.52;7.88;;;;;;;17.42;40.61;100636.97;4990094;28;20132;-74
2022/04/25 09:10:51;;;;;;;10.82;8.70;;;;;;;17.46;40.28;100639.25;4995513;28;20104;-74
2022/04/25 09:13:18;;;;;;;12.70;9.55;;;;;;;17.46;40.01;100632.88;4978642;28;20148;-74
2022/04/25 09:15:45;;;;;;;10.80;8.07;;;;;;;17.49;40.06;100635.34;5000683;28;20136;-74
2022/04/25 09:18:12;;;;;;;10.23;8.25;;;;;;;17.50;39.94;100648.91;5010704;28;20049;-74
2022/04/25 09:20:42;;;;;;;12.05;9.38;;;;;;;17.49;39.96;100649.94;4998441;28;20042;-74
2022/04/25 09:23:21;;;;;;;12.23;10.10;;;;;;;17.51;40.61;100644.28;4998002;28;20046;-73
2022/04/25 09:26:20;;;;;;;12.10;9.52;;;;;;;17.47;40.25;100645.59;5006825;28;20440;-74
2022/04/25 09:28:54;;;;;;;11.18;8.10;;;;;;;17.43;40.07;100647.81;4994109;28;20469;-74
2022/04/25 09:31:22;;;;;;;8.85;7.45;;;;;;;17.44;40.14;100640.44;4999535;28;20058;-74
2022/04/25 09:33:49;;;;;;;10.05;8.05;;;;;;;17.40;40.18;100648.09;4993417;28;20520;-74
2022/04/25 09:36:16;;;;;;;9.48;7.80;;;;;;;17.44;40.17;100644.03;4996773;28;20042;-74
2022/04/25 09:38:43;;;;;;;10.20;8.25;;;;;;;17.41;40.08;100637.97;4996308;28;20093;-75
2022/04/25 09:41:13;;;;;;;11.00;8.10;;;;;;;17.40;40.12;100639.84;4979984;28;20137;-74
2022/04/25 09:43:42;;;;;;;10.02;8.27;;;;;;;17.39;40.19;100645.50;5002624;28;20046;-75
2022/04/25 09:46:11;;;;;;;9.30;7.45;;;;;;;17.39;40.70;100653.72;4993506;28;20053;-74
2022/04/25 09:48:41;;;;;;;9.38;7.63;;;;;;;17.41;40.50;100651.69;4989143;28;20042;-74
2022/04/25 09:51:17;;;;;;;11.73;7.78;;;;;;;17.40;40.17;100652.72;5002708;28;20050;-76
2022/04/25 09:53:49;;;;;;;10.23;7.63;;;;;;;17.41;40.55;100649.81;4989773;28;20058;-75
2022/04/25 09:56:20;;;;;;;10.93;7.90;;;;;;;17.39;40.45;100657.34;4986523;28;20081;-75
2022/04/25 09:59:01;;;;;;;10.13;7.40;;;;;;;17.44;40.98;100652.28;4999906;28;20517;-75
2022/04/25 10:01:30;;;;;;;9.85;7.57;;;;;;;17.42;40.81;100657.03;4996208;28;20053;-74
2022/04/25 10:03:57;;;;;;;9.82;7.07;;;;;;;17.45;40.62;100655.88;4980506;28;20054;-74
2022/04/25 10:06:24;;;;;;;7.95;6.40;;;;;;;17.49;40.80;100660.03;4999076;28;20053;-74
2022/04/25 10:08:52;;;;;;;7.75;6.38;;;;;;;17.55;41.07;100662.16;4996563;28;20140;-74
2022/04/25 10:11:20;;;;;;;8.10;5.97;;;;;;;17.61;41.36;100661.59;5002733;28;20058;-74
2022/04/25 10:13:47;;;;;;;9.70;7.13;;;;;;;17.68;41.53;100660.00;4997382;28;20046;-74
2022/04/25 10:16:20;;;;;;;7.57;6.47;;;;;;;17.80;41.44;100661.50;5003415;28;20108;-74
2022/04/25 10:18:47;;;;;;;;;;;;;;;17.63;41.53;100665.06;4994863;28;20061;-74
2022/04/25 10:21:14;;;;;;;7.70;5.78;;;;;;;17.99;40.83;100662.41;4990059;28;19960;-74
2022/04/25 10:23:41;;;;;;;8.25;6.38;;;;;;;18.16;40.51;100664.31;5004308;28;20058;-74
2022/04/25 10:26:08;;;;;;;7.90;5.78;;;;;;;18.31;40.83;100661.88;4994808;28;20077;-74
2022/04/25 10:28:50;;;;;;;6.57;5.22;;;;;;;18.47;40.20;100670.25;4995195;28;20302;-75
2022/04/25 10:31:28;;;;;;;7.47;5.53;;;;;;;18.63;40.00;100673.19;4989124;28;20058;-74
2022/04/25 10:33:58;;;;;;;6.78;5.45;;;;;;;18.75;39.77;100666.44;4991032;28;20054;-74
2022/04/25 10:36:47;;;;;;;7.45;5.45;;;;;;;18.87;39.27;100665.13;4997565;28;20050;-74
2022/04/25 10:39:29;;;;;;;6.50;5.22;;;;;;;19.04;39.61;100670.75;4989348;28;20062;-74
2022/04/25 10:44:44;;;;;;;6.28;4.50;;;;;;;19.28;39.50;100665.41;4995351;28;20058;-73
2022/04/25 10:47:16;;;;;;;5.93;4.35;;;;;;;19.46;38.88;100659.81;4980494;28;20049;-75
2022/04/25 10:50:02;;;;;;;5.82;4.80;;;;;;;19.63;38.69;100669.94;4993633;28;20086;-75
2022/04/25 10:52:41;;;;;;;6.20;4.82;;;;;;;19.81;37.91;100664.31;4998414;28;20050;-74
2022/04/25 10:55:33;;;;;;;6.88;5.38;;;;;;;19.93;37.02;100672.09;5003738;28;20506;-75
2022/04/25 10:58:03;;;;;;;6.88;5.15;;;;;;;20.08;36.77;100673.22;5005265;28;20053;-74
2022/04/25 11:00:36;;;;;;;6.70;5.55;;;;;;;20.20;36.78;100670.97;5008898;28;20516;-75
2022/04/25 11:03:04;;;;;;;6.80;5.15;;;;;;;20.25;37.26;100676.88;5009894;28;20058;-74
2022/04/25 11:05:30;;;;;;;6.22;4.75;;;;;;;20.34;37.02;100675.03;4997192;28;20137;-74
2022/04/25 11:08:33;;;;;;;6.60;5.32;;;;;;;20.37;36.44;100675.53;4998080;28;20125;-74
2022/04/25 11:11:04;;;;;;;6.82;4.88;;;;;;;20.46;36.18;100680.03;4979303;28;20498;-74
2022/04/25 11:13:35;;;;;;;7.22;4.63;;;;;;;20.52;36.04;100682.09;4983559;28;20042;-74
2022/04/25 11:16:26;;;;;;;5.85;4.50;;;;;;;20.57;35.62;100676.06;4993693;28;20062;-74
2022/04/25 11:19:21;;;;;;;6.47;5.00;;;;;;;20.56;35.60;100685.38;5005552;28;20066;-74
2022/04/25 11:21:50;;;;;;;6.72;5.32;;;;;;;20.61;35.49;100682.97;5001194;28;20104;-74
2022/04/25 11:24:30;;;;;;;6.10;4.95;;;;;;;20.67;34.85;100685.03;5009157;28;20138;-74
2022/04/25 11:27:01;;;;;;;6.28;4.97;;;;;;;20.68;35.47;100678.47;4994553;28;20116;-74
2022/04/25 11:29:28;;;;;;;7.40;5.10;;;;;;;20.73;36.00;100677.97;5010356;28;20054;-75
2022/04/25 11:32:30;;;;;;;6.30;5.15;;;;;;;20.80;35.21;100687.28;5012152;28;20567;-75
2022/04/25 11:35:00;;;;;;;6.50;4.97;;;;;;;20.85;34.92;100688.47;5003256;28;20129;-75
2022/04/25 11:37:29;;;;;;;6.60;5.18;;;;;;;20.92;35.11;100685.06;4998080;28;20049;-75
2022/04/25 11:40:14;;;;;;;6.43;4.80;;;;;;;20.98;34.28;100681.59;4987838;28;20509;-74
2022/04/25 11:42:41;;;;;;;8.65;6.20;;;;;;;20.99;34.66;100686.94;4983435;28;20093;-74
2022/04/25 11:45:08;;;;;;;6.25;4.93;;;;;;;21.06;34.63;100684.34;4998198;28;20501;-75
2022/04/25 11:47:35;;;;;;;8.52;6.28;;;;;;;21.10;34.01;100683.81;5012355;28;20050;-75
2022/04/25 11:50:04;;;;;;;7.30;5.65;;;;;;;21.16;33.46;100683.13;5011206;28;20069;-75
2022/04/25 11:52:31;;;;;;;7.07;5.35;;;;;;;21.16;33.43;100685.03;4983087;28;20417;-75
2022/04/25 11:54:58;;;;;;;6.75;5.53;;;;;;;21.17;33.16;100689.50;4978739;28;20507;-74
2022/04/25 11:57:26;;;;;;;7.30;5.40;;;;;;;21.17;32.71;100682.09;5013934;28;20137;-75